createdAt,value
2017-06-22T05:36:51.334Z,48
2017-06-22T05:37:10.326Z,48
2017-06-22T05:38:12.600Z,48
2017-06-22T05:39:14.688Z,48
2017-06-22T05:40:16.773Z,47
2017-06-22T05:41:18.853Z,47
2017-06-22T05:42:20.934Z,47
2017-06-22T05:43:23.008Z,47
2017-06-22T05:44:25.079Z,47
2017-06-22T05:45:27.172Z,47
2017-06-22T05:46:29.252Z,47
2017-06-22T05:47:31.792Z,47
2017-06-22T05:48:33.890Z,47
2017-06-22T05:49:35.964Z,47
2017-06-22T05:50:38.049Z,47
2017-06-22T05:51:40.122Z,47
2017-06-22T05:52:42.203Z,47
2017-06-22T05:53:44.276Z,47
2017-06-22T05:54:46.345Z,47
2017-06-22T05:55:48.422Z,47
2017-06-22T05:56:50.502Z,47
2017-06-22T05:57:52.584Z,47
2017-06-22T05:58:54.667Z,47
2017-06-22T05:59:56.739Z,47
2017-06-22T06:00:58.817Z,47
2017-06-22T06:02:00.968Z,47
2017-06-22T06:03:04.857Z,47
2017-06-22T06:04:06.943Z,47
2017-06-22T06:05:09.042Z,47
2017-06-22T06:06:11.459Z,46
2017-06-22T13:49:14.836Z,54
2017-06-22T13:49:53.455Z,54
2017-06-22T13:50:55.549Z,51
2017-06-22T13:51:57.635Z,50
2017-06-22T13:53:00.072Z,50
2017-06-22T13:54:02.168Z,50
2017-06-22T13:55:04.271Z,50
2017-06-22T13:56:06.442Z,50
2017-06-22T13:57:08.534Z,50
2017-06-22T13:58:10.620Z,50
2017-06-22T13:59:12.706Z,50
2017-06-22T14:00:15.149Z,50
2017-06-22T14:01:17.240Z,50
2017-06-22T14:02:19.313Z,50
2017-06-22T14:03:21.422Z,50
2017-06-22T14:04:23.543Z,51
2017-06-22T14:05:25.644Z,51
2017-06-22T14:06:27.757Z,51
2017-06-22T14:07:29.847Z,51
2017-06-22T14:08:32.277Z,51
2017-06-22T14:09:34.361Z,51
2017-06-22T14:10:36.802Z,51
2017-06-22T14:11:38.891Z,51
2017-06-22T14:12:41.322Z,51
2017-06-22T14:13:43.414Z,51
2017-06-22T14:14:45.506Z,51
2017-06-22T14:15:47.591Z,51
2017-06-22T14:16:49.709Z,51
2017-06-22T14:17:51.794Z,51
2017-06-22T14:18:53.893Z,51
2017-06-22T14:19:55.982Z,51
2017-06-22T14:20:58.073Z,50
2017-06-22T14:22:00.156Z,50
2017-06-22T14:23:02.941Z,51
2017-06-22T14:24:05.032Z,50
2017-06-22T14:25:07.152Z,50
2017-06-22T14:26:09.595Z,51
2017-06-22T14:27:11.695Z,50
2017-06-22T14:28:13.793Z,50
2017-06-22T14:29:15.893Z,50
2017-06-22T14:30:17.983Z,50
2017-06-22T14:31:20.418Z,50
2017-06-22T14:32:22.528Z,50
2017-06-22T14:33:24.632Z,50
2017-06-22T14:34:27.060Z,50
2017-06-22T14:35:29.495Z,50
2017-06-22T14:36:31.597Z,50
2017-06-22T14:37:33.697Z,50
2017-06-22T14:38:35.794Z,49
2017-06-22T14:39:37.894Z,49
2017-06-22T14:40:40.355Z,49
2017-06-22T14:41:42.448Z,49
2017-06-22T14:42:44.866Z,49
2017-06-22T14:43:47.005Z,49
2017-06-22T14:44:49.440Z,49
2017-06-22T14:45:51.540Z,49
2017-06-22T14:46:53.630Z,49
2017-06-22T14:47:55.774Z,49
2017-06-22T14:48:57.879Z,49
2017-06-22T14:49:59.967Z,49
2017-06-22T14:51:02.411Z,49
2017-06-22T14:52:04.522Z,49
2017-06-22T14:53:06.624Z,49
2017-06-22T14:54:08.737Z,49
2017-06-22T14:55:10.841Z,48
2017-06-22T14:56:13.280Z,48
2017-06-22T14:57:15.376Z,49
2017-06-22T14:58:17.477Z,49
2017-06-22T14:59:19.589Z,49
2017-06-22T15:00:21.696Z,48
2017-06-22T15:01:23.784Z,49
2017-06-22T15:02:26.235Z,48
2017-06-22T15:03:28.340Z,48
2017-06-22T15:04:31.120Z,48
2017-06-22T15:05:33.228Z,48
2017-06-22T15:06:35.336Z,48
2017-06-22T15:07:37.432Z,47
2017-06-22T15:08:39.556Z,48
2017-06-22T15:09:41.656Z,47
2017-06-22T15:10:43.763Z,47
2017-06-22T15:11:45.853Z,47
2017-06-22T15:12:48.290Z,47
2017-06-22T15:13:50.397Z,47
2017-06-22T15:14:52.485Z,47
2017-06-22T15:15:54.922Z,47
2017-06-22T15:16:57.037Z,47
2017-06-22T15:17:59.134Z,47
2017-06-22T15:19:01.239Z,46
2017-06-22T15:20:03.336Z,46
2017-06-22T15:21:05.435Z,47
2017-06-22T15:22:07.537Z,46
2017-06-22T15:23:09.967Z,46
2017-06-22T15:24:12.078Z,46
2017-06-22T15:25:14.174Z,46
2017-06-22T15:26:16.272Z,46
2017-06-22T15:27:18.370Z,46
2017-06-22T15:28:20.470Z,46
2017-06-22T15:29:22.568Z,46
2017-06-22T15:30:24.652Z,46
2017-06-22T15:31:26.754Z,46
2017-06-22T15:32:28.857Z,46
2017-06-22T15:33:30.952Z,46
2017-06-22T15:34:33.395Z,46
2017-06-22T15:35:35.501Z,45
2017-06-22T15:36:37.941Z,45
2017-06-22T15:37:40.366Z,45
2017-06-22T15:38:42.469Z,45
2017-06-22T15:39:44.921Z,45
2017-06-22T15:40:47.360Z,45
2017-06-22T15:41:49.459Z,45
2017-06-22T15:42:51.563Z,45
2017-06-22T15:43:53.667Z,45
2017-06-22T15:44:55.774Z,45
2017-06-22T15:45:57.872Z,45
2017-06-22T15:46:59.969Z,46
2017-06-22T15:48:02.059Z,46
2017-06-22T15:49:04.174Z,46
2017-06-22T15:50:06.268Z,46
2017-06-22T15:51:08.378Z,46
2017-06-22T15:52:10.485Z,46
2017-06-22T15:53:12.576Z,46
2017-06-22T15:54:14.665Z,46
2017-06-22T15:55:16.963Z,46
2017-06-22T15:56:19.072Z,45
2017-06-22T15:57:21.174Z,46
2017-06-22T15:58:23.251Z,45
2017-06-22T15:59:25.344Z,45
2017-06-22T16:00:27.439Z,45
2017-06-22T16:01:29.534Z,46
2017-06-22T16:02:31.626Z,45
2017-06-22T16:03:33.743Z,46
2017-06-22T16:04:35.841Z,46
2017-06-22T16:05:37.933Z,46
2017-06-22T16:06:40.063Z,46
2017-06-22T16:07:42.164Z,46
2017-06-22T16:08:44.259Z,46
2017-06-22T16:09:46.360Z,46
2017-06-22T16:10:48.438Z,46
2017-06-22T16:11:50.555Z,46
2017-06-22T16:12:52.646Z,46
2017-06-22T16:13:54.734Z,46
2017-06-22T16:14:56.829Z,46
2017-06-22T16:15:59.283Z,46
2017-06-22T16:17:01.717Z,46
2017-06-22T16:18:03.815Z,46
2017-06-22T16:19:06.265Z,46
2017-06-22T16:20:08.369Z,46
2017-06-22T16:21:10.453Z,46
2017-06-22T16:22:12.914Z,46
2017-06-22T16:23:15.012Z,46
2017-06-22T16:24:17.111Z,46
2017-06-22T16:25:19.206Z,46
2017-06-22T16:26:21.305Z,45
2017-06-22T16:27:23.387Z,46
2017-06-22T16:28:25.479Z,45
2017-06-22T16:29:27.581Z,45
2017-06-22T16:30:29.663Z,45
2017-06-22T16:31:31.763Z,45
2017-06-22T16:32:33.864Z,45
2017-06-22T16:33:35.961Z,46
2017-06-22T16:34:38.418Z,46
2017-06-22T16:35:40.513Z,46
2017-06-22T16:36:42.623Z,46
2017-06-22T16:37:44.713Z,46
2017-06-22T16:38:46.793Z,46
2017-06-22T16:39:49.222Z,46
2017-06-22T16:40:51.322Z,46
2017-06-22T16:41:53.416Z,46
2017-06-22T16:42:55.517Z,46
2017-06-22T16:43:57.618Z,46
2017-06-22T16:44:59.721Z,46
2017-06-22T16:46:02.152Z,46
2017-06-22T16:47:04.249Z,46
2017-06-22T16:48:06.703Z,46
2017-06-22T16:49:08.781Z,47
2017-06-22T16:50:11.255Z,46
2017-06-22T16:51:13.355Z,46
2017-06-22T16:52:15.658Z,46
2017-06-22T16:53:18.085Z,46
2017-06-22T16:54:20.172Z,46
2017-06-22T16:55:22.277Z,47
2017-06-22T16:56:24.371Z,47
2017-06-22T16:57:26.459Z,47
2017-06-22T16:58:28.551Z,47
2017-06-22T16:59:30.668Z,47
2017-06-22T17:00:32.767Z,47
2017-06-22T17:01:34.851Z,47
2017-06-22T17:02:36.950Z,47
2017-06-22T17:03:39.040Z,47
2017-06-22T17:04:41.141Z,47
2017-06-22T17:05:43.233Z,47
2017-06-22T17:06:45.334Z,47
2017-06-22T17:07:47.434Z,47
2017-06-22T17:08:49.542Z,47
2017-06-22T17:09:51.634Z,47
2017-06-22T17:10:53.742Z,47
2017-06-22T17:11:55.854Z,47
2017-06-22T17:12:57.944Z,47
2017-06-22T17:14:00.033Z,48
2017-06-22T17:15:02.463Z,48
2017-06-22T17:16:04.903Z,48
2017-06-22T17:17:07.016Z,47
2017-06-22T17:18:09.111Z,48
2017-06-22T17:19:11.552Z,48
2017-06-22T17:20:13.634Z,48
2017-06-22T17:21:15.731Z,48
2017-06-22T17:22:17.821Z,48
2017-06-22T17:23:19.921Z,48
2017-06-22T17:24:22.008Z,48
2017-06-22T17:25:24.105Z,48
2017-06-22T17:26:26.188Z,48
2017-06-22T17:27:28.300Z,48
2017-06-22T17:28:30.397Z,48
2017-06-22T17:29:32.828Z,48
2017-06-22T17:30:35.456Z,48
2017-06-22T17:31:37.556Z,48
2017-06-22T17:32:39.648Z,48
2017-06-22T17:33:41.739Z,48
2017-06-22T17:34:43.823Z,48
2017-06-22T17:35:45.920Z,48
2017-06-22T17:36:48.006Z,48
2017-06-22T17:37:50.094Z,48
2017-06-22T17:38:52.182Z,48
2017-06-22T17:39:54.279Z,48
2017-06-22T17:40:56.416Z,48
2017-06-22T17:41:58.507Z,48
2017-06-22T17:43:00.601Z,49
2017-06-22T17:44:02.701Z,49
2017-06-22T17:45:04.804Z,48
2017-06-22T17:46:07.235Z,48
2017-06-22T17:47:09.328Z,49
2017-06-22T17:48:11.429Z,49
2017-06-22T17:49:13.523Z,48
2017-06-22T17:50:15.617Z,48
2017-06-22T17:51:18.059Z,48
2017-06-22T17:52:20.152Z,48
2017-06-22T17:53:22.244Z,48
2017-06-22T17:54:24.337Z,48
2017-06-22T17:55:26.431Z,48
2017-06-22T17:56:28.517Z,48
2017-06-22T17:57:30.608Z,48
2017-06-22T17:58:32.741Z,49
2017-06-22T17:59:34.878Z,49
2017-06-22T18:00:36.979Z,49
2017-06-22T18:01:39.067Z,49
2017-06-22T18:02:41.172Z,49
2017-06-22T18:03:43.611Z,49
2017-06-22T18:04:45.698Z,50
2017-06-22T18:05:47.797Z,50
2017-06-22T18:06:49.896Z,50
2017-06-22T18:07:52.003Z,50
2017-06-22T18:08:54.095Z,51
2017-06-22T18:09:56.194Z,51
2017-06-22T18:10:58.486Z,51
2017-06-22T18:12:00.580Z,51
2017-06-22T18:13:02.669Z,51
2017-06-22T18:14:04.773Z,51
2017-06-22T18:15:07.183Z,51
2017-06-22T18:16:09.638Z,51
2017-06-22T18:17:12.302Z,51
2017-06-22T18:18:14.383Z,51
2017-06-22T18:19:16.719Z,52
2017-06-22T18:20:18.804Z,52
2017-06-22T18:21:20.901Z,51
2017-06-22T18:22:23.028Z,51
2017-06-22T18:23:25.168Z,51
2017-06-22T18:24:27.267Z,51
2017-06-22T18:25:29.353Z,52
2017-06-22T18:26:31.447Z,52
2017-06-22T18:27:33.575Z,52
2017-06-22T18:28:35.664Z,52
2017-06-22T18:29:39.648Z,52
2017-06-22T18:30:41.740Z,52
2017-06-22T18:31:44.175Z,52
2017-06-22T18:32:46.274Z,52
2017-06-22T18:33:48.365Z,52
2017-06-22T18:34:50.470Z,52
2017-06-22T18:35:52.563Z,52
2017-06-22T18:36:54.653Z,52
2017-06-22T18:37:57.099Z,52
2017-06-22T18:38:59.175Z,52
2017-06-22T18:40:01.287Z,52
2017-06-22T18:41:03.384Z,52
2017-06-22T18:42:05.468Z,52
2017-06-22T18:43:07.566Z,52
2017-06-22T18:44:09.994Z,52
2017-06-22T18:45:12.084Z,52
2017-06-22T18:46:14.184Z,52
2017-06-22T18:47:16.279Z,52
2017-06-22T18:48:18.364Z,52
2017-06-22T18:49:20.794Z,52
2017-06-22T18:50:22.894Z,52
2017-06-22T18:51:24.985Z,52
2017-06-22T18:52:27.082Z,52
2017-06-22T18:53:29.163Z,52
2017-06-22T18:54:31.265Z,52
2017-06-22T18:55:33.712Z,52
2017-06-22T18:56:35.801Z,52
2017-06-22T18:57:37.892Z,52
2017-06-22T18:58:39.995Z,52
2017-06-22T18:59:42.078Z,52
2017-06-22T19:00:44.167Z,52
2017-06-22T19:01:46.260Z,52
2017-06-22T19:02:48.368Z,52
2017-06-22T19:03:50.461Z,53
2017-06-22T19:04:52.900Z,53
2017-06-22T19:05:54.990Z,53
2017-06-22T19:06:57.094Z,53
2017-06-22T19:07:59.513Z,53
2017-06-22T19:09:01.600Z,53
2017-06-22T19:10:03.694Z,53
2017-06-22T19:11:05.784Z,53
2017-06-22T19:12:07.858Z,53
2017-06-22T19:13:10.313Z,53
2017-06-22T19:14:12.429Z,53
2017-06-22T19:15:15.071Z,53
2017-06-22T19:16:17.159Z,53
2017-06-22T19:17:19.262Z,53
2017-06-22T19:18:21.351Z,53
2017-06-22T19:19:23.447Z,53
2017-06-22T19:20:25.537Z,53
2017-06-22T19:21:27.641Z,53
2017-06-22T19:22:29.722Z,53
2017-06-22T19:23:31.811Z,54
2017-06-22T19:24:33.903Z,53
2017-06-22T19:25:35.998Z,53
2017-06-22T19:26:38.097Z,53
2017-06-22T19:27:40.195Z,53
2017-06-22T19:28:42.280Z,53
2017-06-22T19:29:44.707Z,54
2017-06-22T19:30:46.794Z,54
2017-06-22T19:31:48.882Z,54
2017-06-22T19:32:51.654Z,54
2017-06-22T19:33:53.760Z,54
2017-06-22T19:34:55.853Z,53
2017-06-22T19:35:57.945Z,54
2017-06-22T19:37:00.030Z,54
2017-06-22T19:38:02.131Z,54
2017-06-22T19:39:04.245Z,54
2017-06-22T19:40:06.325Z,54
2017-06-22T19:41:08.425Z,54
2017-06-22T19:42:10.519Z,54
2017-06-22T19:43:12.953Z,54
2017-06-22T19:44:15.043Z,54
2017-06-22T19:45:17.125Z,54
2017-06-22T19:46:19.229Z,54
2017-06-22T19:47:21.321Z,54
2017-06-22T19:48:23.389Z,54
2017-06-22T19:49:25.815Z,54
2017-06-22T19:50:27.893Z,54
2017-06-22T19:51:29.986Z,54
2017-06-22T19:52:32.079Z,54
2017-06-22T19:53:34.509Z,54
2017-06-22T19:54:36.597Z,54
2017-06-22T19:55:38.681Z,54
2017-06-22T19:56:40.765Z,54
2017-06-22T19:57:42.863Z,53
2017-06-22T19:58:44.947Z,53
2017-06-22T19:59:47.028Z,54
2017-06-22T20:00:49.120Z,54
2017-06-22T20:01:51.204Z,54
2017-06-22T20:02:53.289Z,54
2017-06-22T20:03:55.377Z,54
2017-06-22T20:04:57.475Z,54
2017-06-22T20:05:59.563Z,53
2017-06-22T20:07:01.640Z,53
2017-06-22T20:08:03.734Z,54
2017-06-22T20:09:05.817Z,54
2017-06-22T20:10:07.913Z,54
2017-06-22T20:11:10.002Z,54
2017-06-22T20:12:12.081Z,54
2017-06-22T20:13:14.177Z,54
2017-06-22T20:14:16.272Z,54
2017-06-22T20:15:19.026Z,54
2017-06-22T20:16:21.117Z,54
2017-06-22T20:17:23.205Z,54
2017-06-22T20:18:25.295Z,54
2017-06-22T20:19:27.377Z,54
2017-06-22T20:20:29.460Z,54
2017-06-22T20:21:31.555Z,54
2017-06-22T20:22:33.638Z,54
2017-06-22T20:23:35.714Z,54
2017-06-22T20:24:37.828Z,54
2017-06-22T20:25:39.951Z,54
2017-06-22T20:26:42.039Z,54
2017-06-22T20:27:44.123Z,54
2017-06-22T20:28:46.219Z,54
2017-06-22T20:29:48.298Z,54
2017-06-22T20:30:50.370Z,54
2017-06-22T20:31:52.465Z,54
2017-06-22T20:32:54.561Z,54
2017-06-22T20:33:56.644Z,54
2017-06-22T20:34:58.753Z,54
2017-06-22T20:36:00.838Z,54
2017-06-22T20:37:02.934Z,54
2017-06-22T20:38:05.007Z,54
2017-06-22T20:39:07.087Z,54
2017-06-22T20:40:09.405Z,54
2017-06-22T20:41:11.503Z,54
2017-06-22T20:42:13.585Z,54
2017-06-22T20:43:15.679Z,54
2017-06-22T20:44:18.097Z,54
2017-06-22T20:45:20.525Z,54
2017-06-22T20:46:22.960Z,54
2017-06-22T20:47:25.058Z,54
2017-06-22T20:48:27.149Z,54
2017-06-22T20:49:29.236Z,54
2017-06-22T20:50:31.316Z,54
2017-06-22T20:51:33.403Z,54
2017-06-22T20:52:35.487Z,54
2017-06-22T20:53:37.563Z,54
2017-06-22T20:54:39.671Z,54
2017-06-22T20:55:41.761Z,54
2017-06-22T20:56:43.861Z,54
2017-06-22T20:57:46.306Z,54
2017-06-22T20:58:48.395Z,54
2017-06-22T20:59:50.478Z,54
2017-06-22T21:00:52.596Z,54
2017-06-22T21:01:54.673Z,54
2017-06-22T21:02:56.765Z,54
2017-06-22T21:03:58.837Z,54
2017-06-22T21:05:00.920Z,54
2017-06-22T21:06:03.006Z,54
2017-06-22T21:07:05.302Z,54
2017-06-22T21:08:07.396Z,54
2017-06-22T21:09:09.835Z,54
2017-06-22T21:10:11.928Z,54
2017-06-22T21:11:14.027Z,54
2017-06-22T21:12:16.100Z,54
2017-06-22T21:13:18.187Z,54
2017-06-22T21:14:20.276Z,54
2017-06-22T21:15:22.371Z,54
2017-06-22T21:16:24.469Z,54
2017-06-22T21:17:26.553Z,54
2017-06-22T21:18:28.638Z,54
2017-06-22T21:19:31.120Z,54
2017-06-22T21:20:33.552Z,54
2017-06-22T21:21:35.648Z,54
2017-06-22T21:22:38.418Z,54
2017-06-22T21:23:40.505Z,54
2017-06-22T21:24:42.923Z,54
2017-06-22T21:25:45.010Z,54
2017-06-22T21:26:47.101Z,54
2017-06-22T21:27:49.525Z,54
2017-06-22T21:28:51.622Z,54
2017-06-22T21:29:53.693Z,54
2017-06-22T21:30:55.787Z,54
2017-06-22T21:31:57.882Z,54
2017-06-22T21:33:00.315Z,54
2017-06-22T21:34:02.504Z,54
2017-06-22T21:35:04.591Z,54
2017-06-22T21:36:06.669Z,54
2017-06-22T21:37:08.750Z,54
2017-06-22T21:38:10.832Z,54
2017-06-22T21:39:12.926Z,54
2017-06-22T21:40:15.006Z,54
2017-06-22T21:41:17.430Z,54
2017-06-22T21:42:19.515Z,54
2017-06-22T21:43:21.614Z,54
2017-06-22T21:44:23.688Z,54
2017-06-22T21:45:25.783Z,54
2017-06-22T21:46:27.868Z,54
2017-06-22T21:47:29.947Z,54
2017-06-22T21:48:32.040Z,54
2017-06-22T21:49:34.455Z,54
2017-06-22T21:50:36.543Z,54
2017-06-22T21:51:38.990Z,54
2017-06-22T21:52:41.402Z,54
2017-06-22T21:53:43.491Z,54
2017-06-22T21:54:45.568Z,54
2017-06-22T21:55:47.653Z,54
2017-06-22T21:56:49.745Z,54
2017-06-22T21:57:51.822Z,54
2017-06-22T21:58:53.936Z,54
2017-06-22T21:59:56.019Z,54
2017-06-22T22:00:58.095Z,54
2017-06-22T22:02:00.190Z,54
2017-06-22T22:03:02.819Z,54
2017-06-22T22:04:04.900Z,54
2017-06-22T22:05:06.989Z,54
2017-06-22T22:06:09.070Z,54
2017-06-22T22:07:11.162Z,54
2017-06-22T22:08:13.251Z,54
2017-06-22T22:09:15.677Z,54
2017-06-22T22:10:17.766Z,54
2017-06-22T22:11:19.850Z,54
2017-06-22T22:12:21.938Z,54
2017-06-22T22:13:24.019Z,54
2017-06-22T22:14:26.111Z,54
2017-06-22T22:15:28.202Z,54
2017-06-22T22:16:30.293Z,54
2017-06-22T22:17:32.365Z,54
2017-06-22T22:18:34.795Z,54
2017-06-22T22:19:36.894Z,54
2017-06-22T22:20:38.984Z,54
2017-06-22T22:21:41.274Z,54
2017-06-22T22:22:43.365Z,54
2017-06-22T22:23:45.459Z,54
2017-06-22T22:24:47.864Z,54
2017-06-22T22:25:49.943Z,54
2017-06-22T22:26:52.241Z,54
2017-06-22T22:27:54.324Z,54
2017-06-22T22:28:56.746Z,54
2017-06-22T22:29:58.828Z,54
2017-06-22T22:31:00.921Z,54
2017-06-22T22:32:03.011Z,54
2017-06-22T22:33:05.092Z,54
2017-06-22T22:34:07.197Z,54
2017-06-22T22:35:09.643Z,54
2017-06-22T22:36:11.727Z,54
2017-06-22T22:37:13.817Z,54
2017-06-22T22:38:15.907Z,54
2017-06-22T22:39:17.997Z,54
2017-06-22T22:40:20.076Z,54
2017-06-22T22:41:22.156Z,54
2017-06-22T22:42:24.244Z,54
2017-06-22T22:43:26.347Z,54
2017-06-22T22:44:28.433Z,54
2017-06-22T22:45:30.534Z,54
2017-06-22T22:46:32.615Z,54
2017-06-22T22:47:34.703Z,54
2017-06-22T22:48:36.802Z,54
2017-06-22T22:49:38.887Z,54
2017-06-22T22:50:40.991Z,54
2017-06-22T22:51:43.082Z,54
2017-06-22T22:52:45.147Z,54
2017-06-22T22:53:47.229Z,54
2017-06-22T22:54:49.307Z,54
2017-06-22T22:55:51.391Z,54
2017-06-22T22:56:53.486Z,54
2017-06-22T22:57:55.594Z,54
2017-06-22T22:58:58.364Z,54
2017-06-22T23:00:00.792Z,54
2017-06-22T23:01:03.220Z,54
2017-06-22T23:02:05.303Z,54
2017-06-22T23:03:07.395Z,54
2017-06-22T23:04:09.829Z,54
2017-06-22T23:05:11.910Z,54
2017-06-22T23:06:13.999Z,54
2017-06-22T23:07:16.424Z,54
2017-06-22T23:08:18.516Z,54
2017-06-22T23:09:20.601Z,54
2017-06-22T23:10:22.685Z,54
2017-06-22T23:11:24.769Z,54
2017-06-22T23:12:27.184Z,54
2017-06-22T23:13:29.278Z,54
2017-06-22T23:14:31.365Z,54
2017-06-22T23:15:33.780Z,54
2017-06-22T23:16:35.880Z,54
2017-06-22T23:17:37.954Z,54
2017-06-22T23:18:40.049Z,54
2017-06-22T23:19:42.135Z,54
2017-06-22T23:20:44.217Z,54
2017-06-22T23:21:46.300Z,54
2017-06-22T23:22:48.390Z,54
2017-06-22T23:23:50.474Z,54
2017-06-22T23:24:52.556Z,54
2017-06-22T23:25:54.638Z,54
2017-06-22T23:26:56.734Z,54
2017-06-22T23:27:58.810Z,54
2017-06-22T23:29:00.897Z,54
2017-06-22T23:30:02.977Z,54
2017-06-22T23:31:05.277Z,54
2017-06-22T23:32:07.361Z,54
2017-06-22T23:33:09.803Z,54
2017-06-22T23:34:11.898Z,54
2017-06-22T23:35:13.993Z,54
2017-06-22T23:36:16.072Z,54
2017-06-22T23:37:18.156Z,54
2017-06-22T23:38:20.592Z,54
2017-06-22T23:39:22.672Z,54
2017-06-22T23:40:24.740Z,54
2017-06-22T23:41:26.831Z,54
2017-06-22T23:42:28.924Z,54
2017-06-22T23:43:31.010Z,54
2017-06-22T23:44:33.084Z,54
2017-06-22T23:45:35.165Z,54
2017-06-22T23:46:37.270Z,54
2017-06-22T23:47:39.345Z,54
2017-06-22T23:48:41.782Z,54
2017-06-22T23:49:43.869Z,54
2017-06-22T23:50:45.955Z,54
2017-06-22T23:51:48.037Z,54
2017-06-22T23:52:50.124Z,54
2017-06-22T23:53:52.227Z,54
2017-06-22T23:54:54.330Z,54
2017-06-22T23:55:56.408Z,54
2017-06-22T23:56:58.846Z,54
2017-06-22T23:58:00.934Z,54
2017-06-22T23:59:03.013Z,54
